createdAt,value
2019-05-30T01:19:18.818Z,13.13
2019-05-30T01:24:23.210Z,13.43
2019-05-30T01:29:27.596Z,11.73
2019-05-30T01:34:33.948Z,13.08
2019-05-30T01:39:38.602Z,8.03
2019-05-30T01:44:43.010Z,9.00
2019-05-30T01:49:47.317Z,8.50
2019-05-30T01:54:51.706Z,6.62
2019-05-30T02:00:42.253Z,8.48
2019-05-30T02:05:49.892Z,6.30
2019-05-30T02:10:54.271Z,7.35
2019-05-30T02:15:59.593Z,6.37
2019-05-30T02:21:04.066Z,5.62
2019-05-30T02:26:08.390Z,3.95
2019-05-30T02:31:12.771Z,3.22
2019-05-30T02:36:17.157Z,4.75
2019-05-30T02:41:21.551Z,7.60
2019-05-30T02:46:25.991Z,5.62
2019-05-30T02:51:30.658Z,5.08
2019-05-30T02:56:35.052Z,5.37
2019-05-30T03:01:59.150Z,7.60
2019-05-30T03:06:45.688Z,7.50
2019-05-30T03:11:50.273Z,11.43
2019-05-30T03:16:54.591Z,16.35
2019-05-30T03:21:59.942Z,11.50
2019-05-30T03:27:04.892Z,12.20
2019-05-30T03:32:51.544Z,10.63
2019-05-30T03:37:27.834Z,11.10
2019-05-30T03:42:24.696Z,14.38
2019-05-30T03:47:32.728Z,12.68
2019-05-30T03:52:37.733Z,12.88
2019-05-30T03:57:49.478Z,15.93
2019-05-30T04:02:59.358Z,16.62
2019-05-30T04:08:07.180Z,20.80
2019-05-30T04:13:28.688Z,21.93
2019-05-30T04:18:33.048Z,19.67
2019-05-30T07:58:59.192Z,23.00
2019-05-30T08:04:03.510Z,24.92
2019-05-30T08:09:07.920Z,22.85
2019-05-30T08:14:12.251Z,25.60
2019-05-30T08:19:16.568Z,21.85
2019-05-30T08:24:20.981Z,25.20
2019-05-30T08:29:25.299Z,21.90
2019-05-30T08:34:30.438Z,24.98
2019-05-30T08:39:35.327Z,27.13
2019-05-30T08:44:40.119Z,25.85
2019-05-30T08:49:44.556Z,22.50
2019-05-30T08:54:48.885Z,28.02
2019-05-30T08:59:53.206Z,23.90
2019-05-30T09:04:57.602Z,27.20
2019-05-30T09:10:02.003Z,26.97
2019-05-30T09:15:10.313Z,24.75
2019-05-30T09:20:15.315Z,28.92
2019-05-30T09:25:22.182Z,25.10
2019-05-30T09:30:26.644Z,26.52
2019-05-30T09:35:30.956Z,25.40
2019-05-30T09:40:35.696Z,22.73
2019-05-30T09:45:41.159Z,26.42
2019-05-30T09:50:46.775Z,25.80
2019-05-30T09:55:51.612Z,25.65
2019-05-30T10:00:55.955Z,23.62
2019-05-30T10:06:00.378Z,25.75
2019-05-30T10:11:05.042Z,28.27
2019-05-30T10:16:09.451Z,24.63
2019-05-30T10:21:13.780Z,23.45
2019-05-30T10:26:18.211Z,25.20
2019-05-30T10:31:22.885Z,22.98
2019-05-30T10:36:27.216Z,20.68
2019-05-30T10:41:31.538Z,22.67
2019-05-30T10:46:35.922Z,25.12
2019-05-30T10:51:40.266Z,23.10
2019-05-30T10:56:45.154Z,28.62
2019-05-30T11:01:50.716Z,30.10
2019-05-30T11:07:11.618Z,30.45
2019-05-30T11:12:14.787Z,24.10
2019-05-30T11:17:19.261Z,24.72
2019-05-30T11:22:23.668Z,18.42
2019-05-30T11:27:28.073Z,18.98
2019-05-30T11:32:32.466Z,22.45
2019-05-30T11:37:36.777Z,22.35
2019-05-30T11:42:41.094Z,25.27
2019-05-30T11:47:45.518Z,22.80
2019-05-30T11:52:53.680Z,21.97
2019-05-30T11:57:58.466Z,21.90
2019-05-30T12:03:02.923Z,21.05
2019-05-30T12:08:07.318Z,19.73
2019-05-30T12:13:11.712Z,21.17
2019-05-30T12:18:16.031Z,18.67
2019-05-30T12:23:20.343Z,17.12
2019-05-30T12:28:24.980Z,15.95
2019-05-30T12:33:29.394Z,15.13
2019-05-30T12:38:34.087Z,14.58
2019-05-30T12:43:38.492Z,11.70
2019-05-30T12:48:42.890Z,10.20
2019-05-30T12:53:47.283Z,10.58
2019-05-30T12:58:51.676Z,7.42
2019-05-30T13:03:56.979Z,6.62
2019-05-30T13:09:01.483Z,8.63
2019-05-30T13:14:06.878Z,6.40
2019-05-30T13:19:11.355Z,6.20
2019-05-30T13:24:15.734Z,6.92
2019-05-30T13:29:20.126Z,6.70
2019-05-30T13:34:24.590Z,4.90
2019-05-30T13:39:29.078Z,4.60
2019-05-30T13:44:33.480Z,7.83
2019-05-30T13:49:38.074Z,8.48
2019-05-30T13:54:42.369Z,8.18
2019-05-30T13:59:46.997Z,7.03
2019-05-30T14:04:51.360Z,8.88
2019-05-30T14:09:55.742Z,9.28
2019-05-30T14:15:01.029Z,3.80
2019-05-30T14:20:11.325Z,4.72
2019-05-30T14:25:16.210Z,5.78
2019-05-30T14:30:21.018Z,7.78
2019-05-30T14:35:25.476Z,9.30
2019-05-30T14:40:29.896Z,10.63
2019-05-30T14:45:34.283Z,9.43
2019-05-30T14:50:38.679Z,10.70
2019-05-30T14:55:43.094Z,7.90
2019-05-30T15:00:47.478Z,6.30
2019-05-30T15:05:51.881Z,5.85
2019-05-30T15:10:56.266Z,3.15
2019-05-30T15:16:00.666Z,2.95
2019-05-30T15:21:06.180Z,3.42
2019-05-30T15:26:12.055Z,6.23
2019-05-30T15:31:16.675Z,3.43
2019-05-30T15:36:21.066Z,3.17
2019-05-30T15:41:25.458Z,3.20
2019-05-30T15:46:29.774Z,1.60
2019-05-30T15:51:34.076Z,2.72
2019-05-30T15:56:38.693Z,4.42
2019-05-30T16:01:43.096Z,1.75
2019-05-30T16:06:47.664Z,3.22
2019-05-30T16:11:52.106Z,4.00
2019-05-30T16:16:56.488Z,3.22
2019-05-30T16:22:00.884Z,7.45
2019-05-30T16:27:05.274Z,5.92
2019-05-30T16:32:09.663Z,4.60
2019-05-30T16:37:14.223Z,3.80
2019-05-30T16:42:18.751Z,5.75
2019-05-30T16:47:23.115Z,6.87
2019-05-30T16:52:27.507Z,6.05
2019-05-30T16:57:31.817Z,4.70
2019-05-30T17:02:36.125Z,7.70
2019-05-30T17:07:40.446Z,2.60
2019-05-30T17:12:44.834Z,4.33
2019-05-30T17:17:49.427Z,5.15
2019-05-30T17:22:54.172Z,6.03
2019-05-30T17:27:59.021Z,2.98
2019-05-30T17:33:03.359Z,3.40
2019-05-30T17:38:07.771Z,4.58
2019-05-30T17:43:12.167Z,5.25
2019-05-30T17:48:17.013Z,5.58
2019-05-30T17:53:21.716Z,6.67
2019-05-30T17:58:26.254Z,5.35
2019-05-30T18:03:30.691Z,6.20
2019-05-30T18:08:35.036Z,7.03
2019-05-30T18:13:39.461Z,4.65
2019-05-30T18:18:43.760Z,6.33
2019-05-30T18:23:48.142Z,14.60
2019-05-30T18:28:55.137Z,8.88
2019-05-30T18:33:59.731Z,9.13
2019-05-30T18:39:05.160Z,8.50
2019-05-30T18:44:09.501Z,11.05
2019-05-30T18:49:13.812Z,6.15
2019-05-30T18:54:18.191Z,8.70
2019-05-30T18:59:22.504Z,7.53
2019-05-30T19:04:27.469Z,10.25
2019-05-30T19:09:33.419Z,6.72
2019-05-30T19:14:37.879Z,11.33
2019-05-30T19:19:42.271Z,8.53
2019-05-30T19:24:46.679Z,8.08
2019-05-30T19:29:50.978Z,10.80
2019-05-30T19:34:55.385Z,6.33
2019-05-30T19:39:59.718Z,7.50
2019-05-30T19:45:06.743Z,9.18
2019-05-30T19:55:15.070Z,6.12
2019-05-30T20:00:19.539Z,9.00
2019-05-30T20:05:23.838Z,12.68
2019-05-30T21:14:27.505Z,8.28
2019-05-30T21:19:30.122Z,8.23
2019-05-30T21:24:36.351Z,5.35
2019-05-30T21:29:41.161Z,5.90
2019-05-30T21:34:46.510Z,7.53
2019-05-30T21:39:51.414Z,6.22
2019-05-30T21:44:55.819Z,7.92
2019-05-30T21:50:00.210Z,8.10
2019-05-30T21:55:06.121Z,7.03
2019-05-30T22:00:20.964Z,8.53
2019-05-30T22:05:25.721Z,4.92
2019-05-30T22:10:30.026Z,4.28
2019-05-30T22:15:34.338Z,7.75
2019-05-30T22:20:38.653Z,4.55
2019-05-30T22:25:44.124Z,9.53
2019-05-30T22:30:48.566Z,10.88
2019-05-30T22:35:53.329Z,6.05
2019-05-30T22:41:17.282Z,5.83
2019-05-30T22:46:17.011Z,4.12
2019-05-30T22:51:21.325Z,7.87
2019-05-30T22:56:25.651Z,9.50
2019-05-30T23:01:30.308Z,5.62
2019-05-30T23:06:34.696Z,7.62
2019-05-30T23:11:39.084Z,6.72
2019-05-30T23:16:43.746Z,6.00
2019-05-30T23:21:48.724Z,4.40
2019-05-30T23:26:53.782Z,7.55
2019-05-30T23:31:58.370Z,6.10
2019-05-30T23:37:02.728Z,3.60
2019-05-30T23:42:07.121Z,6.17
2019-05-30T23:47:11.539Z,6.28
2019-05-30T23:52:15.867Z,5.85
2019-05-30T23:57:20.186Z,6.05
